sensor_id;sensor_type;location;lat;lon;timestamp;temperature;humidity
38380;DHT22;38377;47.418;18.882;2023-08-07T00:00:30;15.00;99.90
38380;DHT22;38377;47.418;18.882;2023-08-07T00:02:55;15.10;99.90
38380;DHT22;38377;47.418;18.882;2023-08-07T00:05:21;15.10;99.90
38380;DHT22;38377;47.418;18.882;2023-08-07T00:07:47;15.10;99.90
38380;DHT22;38377;47.418;18.882;2023-08-07T00:10:13;15.10;99.90
38380;DHT22;38377;47.418;18.882;2023-08-07T00:12:40;15.10;99.90
38380;DHT22;38377;47.418;18.882;2023-08-07T00:15:06;15.10;99.90
38380;DHT22;38377;47.418;18.882;2023-08-07T00:17:32;15.10;99.90
38380;DHT22;38377;47.418;18.882;2023-08-07T00:19:57;15.10;99.90
38380;DHT22;38377;47.418;18.882;2023-08-07T00:22:23;15.20;99.90
38380;DHT22;38377;47.418;18.882;2023-08-07T00:24:48;15.20;99.90
38380;DHT22;38377;47.418;18.882;2023-08-07T00:27:14;15.20;99.90
38380;DHT22;38377;47.418;18.882;2023-08-07T00:29:40;15.20;99.90
38380;DHT22;38377;47.418;18.882;2023-08-07T00:32:06;15.20;99.90
38380;DHT22;38377;47.418;18.882;2023-08-07T00:34:32;15.10;99.90
38380;DHT22;38377;47.418;18.882;2023-08-07T00:36:57;15.10;99.90
38380;DHT22;38377;47.418;18.882;2023-08-07T00:39:23;15.10;99.90
38380;DHT22;38377;47.418;18.882;2023-08-07T00:41:49;15.10;99.90
38380;DHT22;38377;47.418;18.882;2023-08-07T00:44:15;15.10;99.90
38380;DHT22;38377;47.418;18.882;2023-08-07T00:46:41;15.10;99.90
38380;DHT22;38377;47.418;18.882;2023-08-07T00:49:08;15.00;99.90
38380;DHT22;38377;47.418;18.882;2023-08-07T00:51:36;15.00;99.90
38380;DHT22;38377;47.418;18.882;2023-08-07T00:54:03;15.00;99.90
38380;DHT22;38377;47.418;18.882;2023-08-07T00:56:30;15.00;99.90
38380;DHT22;38377;47.418;18.882;2023-08-07T00:59:00;15.10;99.90
38380;DHT22;38377;47.418;18.882;2023-08-07T01:01:26;15.00;99.90
38380;DHT22;38377;47.418;18.882;2023-08-07T01:03:52;15.00;99.90
38380;DHT22;38377;47.418;18.882;2023-08-07T01:06:17;15.00;99.90
38380;DHT22;38377;47.418;18.882;2023-08-07T01:08:43;15.00;99.90
38380;DHT22;38377;47.418;18.882;2023-08-07T01:13:42;15.00;99.90
38380;DHT22;38377;47.418;18.882;2023-08-07T01:16:18;15.00;99.90
38380;DHT22;38377;47.418;18.882;2023-08-07T01:18:45;15.00;99.90
38380;DHT22;38377;47.418;18.882;2023-08-07T01:21:18;15.00;99.90
38380;DHT22;38377;47.418;18.882;2023-08-07T01:23:48;15.00;99.90
38380;DHT22;38377;47.418;18.882;2023-08-07T01:26:16;15.00;99.90
38380;DHT22;38377;47.418;18.882;2023-08-07T01:31:46;15.00;99.90
38380;DHT22;38377;47.418;18.882;2023-08-07T01:34:17;15.00;99.90
38380;DHT22;38377;47.418;18.882;2023-08-07T01:36:44;15.00;99.90
38380;DHT22;38377;47.418;18.882;2023-08-07T01:39:11;15.10;99.90
38380;DHT22;38377;47.418;18.882;2023-08-07T01:41:40;15.00;99.90
38380;DHT22;38377;47.418;18.882;2023-08-07T01:44:06;15.00;99.90
38380;DHT22;38377;47.418;18.882;2023-08-07T01:46:32;15.00;99.90
38380;DHT22;38377;47.418;18.882;2023-08-07T01:48:57;15.00;99.90
38380;DHT22;38377;47.418;18.882;2023-08-07T01:51:23;15.00;99.90
38380;DHT22;38377;47.418;18.882;2023-08-07T01:53:48;15.00;99.90
38380;DHT22;38377;47.418;18.882;2023-08-07T01:56:14;15.00;99.90
38380;DHT22;38377;47.418;18.882;2023-08-07T01:58:40;15.00;99.90
38380;DHT22;38377;47.418;18.882;2023-08-07T02:01:05;15.10;99.90
38380;DHT22;38377;47.418;18.882;2023-08-07T02:03:31;15.10;99.90
38380;DHT22;38377;47.418;18.882;2023-08-07T02:05:57;15.10;99.90
38380;DHT22;38377;47.418;18.882;2023-08-07T02:08:22;15.10;99.90
38380;DHT22;38377;47.418;18.882;2023-08-07T02:10:48;15.20;99.90
38380;DHT22;38377;47.418;18.882;2023-08-07T02:13:14;15.10;99.90
38380;DHT22;38377;47.418;18.882;2023-08-07T02:15:45;15.10;99.90
38380;DHT22;38377;47.418;18.882;2023-08-07T02:18:11;15.10;99.90
38380;DHT22;38377;47.418;18.882;2023-08-07T02:20:36;15.10;99.90
38380;DHT22;38377;47.418;18.882;2023-08-07T02:23:02;15.10;99.90
38380;DHT22;38377;47.418;18.882;2023-08-07T02:25:28;15.00;99.90
38380;DHT22;38377;47.418;18.882;2023-08-07T02:27:53;15.10;99.90
38380;DHT22;38377;47.418;18.882;2023-08-07T02:30:19;15.10;99.90
38380;DHT22;38377;47.418;18.882;2023-08-07T02:32:45;15.10;99.90
38380;DHT22;38377;47.418;18.882;2023-08-07T02:35:11;15.10;99.90
38380;DHT22;38377;47.418;18.882;2023-08-07T02:37:37;15.10;99.90
38380;DHT22;38377;47.418;18.882;2023-08-07T02:40:03;15.00;99.90
38380;DHT22;38377;47.418;18.882;2023-08-07T02:42:29;15.00;99.90
38380;DHT22;38377;47.418;18.882;2023-08-07T02:44:55;15.00;99.90
38380;DHT22;38377;47.418;18.882;2023-08-07T02:47:21;15.00;99.90
38380;DHT22;38377;47.418;18.882;2023-08-07T02:49:46;14.90;99.90
38380;DHT22;38377;47.418;18.882;2023-08-07T02:52:12;14.90;99.90
38380;DHT22;38377;47.418;18.882;2023-08-07T02:54:44;14.90;99.90
38380;DHT22;38377;47.418;18.882;2023-08-07T02:57:10;14.80;99.90
38380;DHT22;38377;47.418;18.882;2023-08-07T02:59:36;14.80;99.90
38380;DHT22;38377;47.418;18.882;2023-08-07T03:02:01;14.80;99.90
38380;DHT22;38377;47.418;18.882;2023-08-07T03:04:27;14.70;99.90
38380;DHT22;38377;47.418;18.882;2023-08-07T03:06:53;14.70;99.90
38380;DHT22;38377;47.418;18.882;2023-08-07T03:09:18;14.70;99.90
38380;DHT22;38377;47.418;18.882;2023-08-07T03:11:44;14.70;99.90
38380;DHT22;38377;47.418;18.882;2023-08-07T03:14:09;14.60;99.90
38380;DHT22;38377;47.418;18.882;2023-08-07T03:16:35;14.60;99.90
38380;DHT22;38377;47.418;18.882;2023-08-07T03:19:01;14.50;99.90
38380;DHT22;38377;47.418;18.882;2023-08-07T03:21:26;14.60;99.90
38380;DHT22;38377;47.418;18.882;2023-08-07T03:23:52;14.50;99.90
38380;DHT22;38377;47.418;18.882;2023-08-07T03:26:18;14.60;99.90
38380;DHT22;38377;47.418;18.882;2023-08-07T03:28:43;14.50;99.90
38380;DHT22;38377;47.418;18.882;2023-08-07T03:31:20;14.50;99.90
38380;DHT22;38377;47.418;18.882;2023-08-07T03:33:46;14.40;99.90
38380;DHT22;38377;47.418;18.882;2023-08-07T03:36:11;14.40;99.90
38380;DHT22;38377;47.418;18.882;2023-08-07T03:38:37;14.50;99.90
38380;DHT22;38377;47.418;18.882;2023-08-07T03:41:03;14.50;99.90
38380;DHT22;38377;47.418;18.882;2023-08-07T03:43:29;14.50;99.90
38380;DHT22;38377;47.418;18.882;2023-08-07T03:45:55;14.50;99.90
38380;DHT22;38377;47.418;18.882;2023-08-07T03:48:22;14.40;99.90
38380;DHT22;38377;47.418;18.882;2023-08-07T03:50:47;14.40;99.90
38380;DHT22;38377;47.418;18.882;2023-08-07T03:53:13;14.40;99.90
38380;DHT22;38377;47.418;18.882;2023-08-07T03:55:39;14.40;99.90
38380;DHT22;38377;47.418;18.882;2023-08-07T03:58:05;14.40;99.90
38380;DHT22;38377;47.418;18.882;2023-08-07T04:00:30;14.40;99.90
38380;DHT22;38377;47.418;18.882;2023-08-07T04:02:56;14.40;99.90
38380;DHT22;38377;47.418;18.882;2023-08-07T04:05:22;14.40;99.90
38380;DHT22;38377;47.418;18.882;2023-08-07T04:07:47;14.40;99.90
38380;DHT22;38377;47.418;18.882;2023-08-07T04:10:13;14.40;99.90
38380;DHT22;38377;47.418;18.882;2023-08-07T04:12:39;14.40;99.90
38380;DHT22;38377;47.418;18.882;2023-08-07T04:15:05;14.50;99.90
38380;DHT22;38377;47.418;18.882;2023-08-07T04:17:32;14.50;99.90
38380;DHT22;38377;47.418;18.882;2023-08-07T04:19:57;14.60;99.90
38380;DHT22;38377;47.418;18.882;2023-08-07T04:22:23;14.60;99.90
38380;DHT22;38377;47.418;18.882;2023-08-07T04:24:49;14.70;99.90
38380;DHT22;38377;47.418;18.882;2023-08-07T04:27:14;14.70;99.90
38380;DHT22;38377;47.418;18.882;2023-08-07T04:29:40;14.80;99.90
38380;DHT22;38377;47.418;18.882;2023-08-07T04:32:06;14.80;99.90
38380;DHT22;38377;47.418;18.882;2023-08-07T04:34:32;14.90;99.90
38380;DHT22;38377;47.418;18.882;2023-08-07T04:36:57;14.90;99.90
38380;DHT22;38377;47.418;18.882;2023-08-07T04:39:23;15.10;99.90
38380;DHT22;38377;47.418;18.882;2023-08-07T04:41:49;15.30;99.90
38380;DHT22;38377;47.418;18.882;2023-08-07T04:44:17;15.40;99.90
38380;DHT22;38377;47.418;18.882;2023-08-07T04:46:43;15.40;99.90
38380;DHT22;38377;47.418;18.882;2023-08-07T04:49:09;15.30;99.90
38380;DHT22;38377;47.418;18.882;2023-08-07T04:51:34;15.30;99.90
38380;DHT22;38377;47.418;18.882;2023-08-07T04:54:00;15.20;99.90
38380;DHT22;38377;47.418;18.882;2023-08-07T04:56:26;15.20;99.90
38380;DHT22;38377;47.418;18.882;2023-08-07T04:58:51;15.20;99.90
38380;DHT22;38377;47.418;18.882;2023-08-07T05:01:17;15.20;99.90
38380;DHT22;38377;47.418;18.882;2023-08-07T05:03:43;15.20;99.90
38380;DHT22;38377;47.418;18.882;2023-08-07T05:06:09;15.30;99.90
38380;DHT22;38377;47.418;18.882;2023-08-07T05:08:35;15.40;99.90
38380;DHT22;38377;47.418;18.882;2023-08-07T05:11:00;15.40;99.90
38380;DHT22;38377;47.418;18.882;2023-08-07T05:13:26;15.50;99.90
38380;DHT22;38377;47.418;18.882;2023-08-07T05:15:52;15.50;99.90
38380;DHT22;38377;47.418;18.882;2023-08-07T05:18:18;15.50;99.90
38380;DHT22;38377;47.418;18.882;2023-08-07T05:20:43;15.50;99.90
38380;DHT22;38377;47.418;18.882;2023-08-07T05:23:09;15.50;99.90
38380;DHT22;38377;47.418;18.882;2023-08-07T05:25:36;15.40;99.90
38380;DHT22;38377;47.418;18.882;2023-08-07T05:28:02;15.40;99.90
38380;DHT22;38377;47.418;18.882;2023-08-07T05:30:28;15.40;99.90
38380;DHT22;38377;47.418;18.882;2023-08-07T05:32:54;15.40;99.90
38380;DHT22;38377;47.418;18.882;2023-08-07T05:35:20;15.40;99.90
38380;DHT22;38377;47.418;18.882;2023-08-07T05:37:45;15.50;99.90
38380;DHT22;38377;47.418;18.882;2023-08-07T05:40:11;15.50;99.90
38380;DHT22;38377;47.418;18.882;2023-08-07T05:42:37;15.50;99.90
38380;DHT22;38377;47.418;18.882;2023-08-07T05:45:03;15.60;99.90
38380;DHT22;38377;47.418;18.882;2023-08-07T05:47:32;15.60;99.90
38380;DHT22;38377;47.418;18.882;2023-08-07T05:49:57;15.70;99.90
38380;DHT22;38377;47.418;18.882;2023-08-07T05:52:23;15.70;99.90
38380;DHT22;38377;47.418;18.882;2023-08-07T05:54:49;15.70;99.90
38380;DHT22;38377;47.418;18.882;2023-08-07T05:57:15;15.60;99.90
38380;DHT22;38377;47.418;18.882;2023-08-07T05:59:40;15.60;99.90
38380;DHT22;38377;47.418;18.882;2023-08-07T06:02:06;15.50;99.90
38380;DHT22;38377;47.418;18.882;2023-08-07T06:04:32;15.50;99.90
38380;DHT22;38377;47.418;18.882;2023-08-07T06:06:58;15.50;99.90
38380;DHT22;38377;47.418;18.882;2023-08-07T06:09:24;15.50;99.90
38380;DHT22;38377;47.418;18.882;2023-08-07T06:11:50;15.50;99.90
38380;DHT22;38377;47.418;18.882;2023-08-07T06:14:16;15.60;99.90
38380;DHT22;38377;47.418;18.882;2023-08-07T06:16:41;15.60;99.90
38380;DHT22;38377;47.418;18.882;2023-08-07T06:19:07;15.60;99.90
38380;DHT22;38377;47.418;18.882;2023-08-07T06:21:34;15.60;99.90
38380;DHT22;38377;47.418;18.882;2023-08-07T06:23:59;15.70;99.90
38380;DHT22;38377;47.418;18.882;2023-08-07T06:26:25;15.70;99.90
38380;DHT22;38377;47.418;18.882;2023-08-07T06:28:51;15.80;99.90
38380;DHT22;38377;47.418;18.882;2023-08-07T06:31:17;15.90;99.90
38380;DHT22;38377;47.418;18.882;2023-08-07T06:33:43;16.00;99.90
38380;DHT22;38377;47.418;18.882;2023-08-07T06:36:09;16.30;99.90
38380;DHT22;38377;47.418;18.882;2023-08-07T06:38:34;16.50;99.90
38380;DHT22;38377;47.418;18.882;2023-08-07T06:41:00;16.70;99.90
38380;DHT22;38377;47.418;18.882;2023-08-07T06:43:26;16.70;99.90
38380;DHT22;38377;47.418;18.882;2023-08-07T06:45:53;16.80;99.90
38380;DHT22;38377;47.418;18.882;2023-08-07T06:48:19;16.70;99.90
38380;DHT22;38377;47.418;18.882;2023-08-07T06:50:49;16.80;99.90
38380;DHT22;38377;47.418;18.882;2023-08-07T06:53:15;16.90;99.90
38380;DHT22;38377;47.418;18.882;2023-08-07T06:55:42;16.90;99.90
38380;DHT22;38377;47.418;18.882;2023-08-07T06:58:08;16.90;99.90
38380;DHT22;38377;47.418;18.882;2023-08-07T07:00:34;16.80;99.90
38380;DHT22;38377;47.418;18.882;2023-08-07T07:03:01;16.80;99.90
38380;DHT22;38377;47.418;18.882;2023-08-07T07:05:27;16.90;99.90
38380;DHT22;38377;47.418;18.882;2023-08-07T07:07:52;17.20;99.90
38380;DHT22;38377;47.418;18.882;2023-08-07T07:10:18;17.30;99.90
38380;DHT22;38377;47.418;18.882;2023-08-07T07:12:44;17.40;99.90
38380;DHT22;38377;47.418;18.882;2023-08-07T07:15:09;17.40;99.90
38380;DHT22;38377;47.418;18.882;2023-08-07T07:17:35;17.50;99.90
38380;DHT22;38377;47.418;18.882;2023-08-07T07:20:01;17.60;99.90
38380;DHT22;38377;47.418;18.882;2023-08-07T07:22:26;17.60;99.10
38380;DHT22;38377;47.418;18.882;2023-08-07T07:24:56;17.50;99.50
38380;DHT22;38377;47.418;18.882;2023-08-07T07:27:22;17.40;99.10
38380;DHT22;38377;47.418;18.882;2023-08-07T07:29:48;17.30;99.40
38380;DHT22;38377;47.418;18.882;2023-08-07T07:32:14;17.40;99.50
38380;DHT22;38377;47.418;18.882;2023-08-07T07:34:40;17.80;99.40
38380;DHT22;38377;47.418;18.882;2023-08-07T07:37:05;18.20;97.90
38380;DHT22;38377;47.418;18.882;2023-08-07T07:39:31;18.50;98.00
38380;DHT22;38377;47.418;18.882;2023-08-07T07:41:57;18.60;98.10
38380;DHT22;38377;47.418;18.882;2023-08-07T07:44:22;18.80;97.00
38380;DHT22;38377;47.418;18.882;2023-08-07T07:46:48;18.90;96.50
38380;DHT22;38377;47.418;18.882;2023-08-07T07:49:14;18.90;96.60
38380;DHT22;38377;47.418;18.882;2023-08-07T07:51:40;18.90;96.10
38380;DHT22;38377;47.418;18.882;2023-08-07T07:54:06;19.10;96.20
38380;DHT22;38377;47.418;18.882;2023-08-07T07:56:31;19.20;96.00
38380;DHT22;38377;47.418;18.882;2023-08-07T07:58:57;19.20;94.20
38380;DHT22;38377;47.418;18.882;2023-08-07T08:01:23;19.30;94.00
38380;DHT22;38377;47.418;18.882;2023-08-07T08:03:49;19.40;93.70
38380;DHT22;38377;47.418;18.882;2023-08-07T08:06:14;19.30;93.10
38380;DHT22;38377;47.418;18.882;2023-08-07T08:08:41;18.90;93.30
38380;DHT22;38377;47.418;18.882;2023-08-07T08:11:08;18.60;93.20
38380;DHT22;38377;47.418;18.882;2023-08-07T08:13:34;18.40;93.60
38380;DHT22;38377;47.418;18.882;2023-08-07T08:16:04;18.30;93.90
38380;DHT22;38377;47.418;18.882;2023-08-07T08:18:29;18.20;93.90
38380;DHT22;38377;47.418;18.882;2023-08-07T08:21:01;18.50;94.70
38380;DHT22;38377;47.418;18.882;2023-08-07T08:23:26;18.70;93.30
38380;DHT22;38377;47.418;18.882;2023-08-07T08:25:52;18.70;93.70
38380;DHT22;38377;47.418;18.882;2023-08-07T08:28:18;18.60;94.60
38380;DHT22;38377;47.418;18.882;2023-08-07T08:30:44;18.60;94.30
38380;DHT22;38377;47.418;18.882;2023-08-07T08:33:09;18.70;93.90
38380;DHT22;38377;47.418;18.882;2023-08-07T08:35:38;18.80;93.30
38380;DHT22;38377;47.418;18.882;2023-08-07T08:38:04;18.80;93.10
38380;DHT22;38377;47.418;18.882;2023-08-07T08:40:38;18.70;94.00
38380;DHT22;38377;47.418;18.882;2023-08-07T08:43:05;18.70;94.10
38380;DHT22;38377;47.418;18.882;2023-08-07T08:45:31;18.50;94.00
38380;DHT22;38377;47.418;18.882;2023-08-07T08:48:02;18.40;94.80
38380;DHT22;38377;47.418;18.882;2023-08-07T08:50:29;18.30;94.30
38380;DHT22;38377;47.418;18.882;2023-08-07T08:52:56;18.10;93.80
38380;DHT22;38377;47.418;18.882;2023-08-07T08:55:22;18.10;94.20
38380;DHT22;38377;47.418;18.882;2023-08-07T08:57:49;18.30;95.00
38380;DHT22;38377;47.418;18.882;2023-08-07T09:00:16;18.40;94.50
38380;DHT22;38377;47.418;18.882;2023-08-07T09:02:47;18.60;93.50
38380;DHT22;38377;47.418;18.882;2023-08-07T09:05:15;18.50;93.40
38380;DHT22;38377;47.418;18.882;2023-08-07T09:07:41;18.50;93.30
38380;DHT22;38377;47.418;18.882;2023-08-07T09:10:09;18.60;93.30
38380;DHT22;38377;47.418;18.882;2023-08-07T09:12:45;18.80;92.30
38380;DHT22;38377;47.418;18.882;2023-08-07T09:15:14;19.00;90.90
38380;DHT22;38377;47.418;18.882;2023-08-07T09:17:42;19.40;92.00
38380;DHT22;38377;47.418;18.882;2023-08-07T09:20:10;19.60;91.30
38380;DHT22;38377;47.418;18.882;2023-08-07T09:22:38;19.80;91.60
38380;DHT22;38377;47.418;18.882;2023-08-07T09:25:05;19.60;89.40
38380;DHT22;38377;47.418;18.882;2023-08-07T09:27:31;19.60;89.40
38380;DHT22;38377;47.418;18.882;2023-08-07T09:29:57;19.80;91.60
38380;DHT22;38377;47.418;18.882;2023-08-07T09:32:23;19.90;88.60
38380;DHT22;38377;47.418;18.882;2023-08-07T09:34:50;19.50;88.60
38380;DHT22;38377;47.418;18.882;2023-08-07T09:37:17;19.10;90.10
38380;DHT22;38377;47.418;18.882;2023-08-07T09:39:43;19.00;90.70
38380;DHT22;38377;47.418;18.882;2023-08-07T09:42:15;18.70;90.50
38380;DHT22;38377;47.418;18.882;2023-08-07T09:44:42;18.60;91.50
38380;DHT22;38377;47.418;18.882;2023-08-07T09:47:16;18.50;91.60
38380;DHT22;38377;47.418;18.882;2023-08-07T09:49:43;18.40;91.90
38380;DHT22;38377;47.418;18.882;2023-08-07T09:52:11;18.40;93.10
38380;DHT22;38377;47.418;18.882;2023-08-07T09:54:39;18.60;92.00
38380;DHT22;38377;47.418;18.882;2023-08-07T09:57:05;18.90;91.20
38380;DHT22;38377;47.418;18.882;2023-08-07T09:59:32;18.90;91.80
38380;DHT22;38377;47.418;18.882;2023-08-07T10:01:59;19.00;90.90
38380;DHT22;38377;47.418;18.882;2023-08-07T10:04:26;19.20;90.80
38380;DHT22;38377;47.418;18.882;2023-08-07T10:06:52;19.80;92.40
38380;DHT22;38377;47.418;18.882;2023-08-07T10:09:18;20.30;87.70
38380;DHT22;38377;47.418;18.882;2023-08-07T10:11:45;20.20;85.40
38380;DHT22;38377;47.418;18.882;2023-08-07T10:14:13;20.10;87.90
38380;DHT22;38377;47.418;18.882;2023-08-07T10:16:40;19.70;85.60
38380;DHT22;38377;47.418;18.882;2023-08-07T10:19:07;19.50;86.30
38380;DHT22;38377;47.418;18.882;2023-08-07T10:21:35;19.60;89.70
38380;DHT22;38377;47.418;18.882;2023-08-07T10:24:03;19.60;88.70
38380;DHT22;38377;47.418;18.882;2023-08-07T10:26:32;19.50;89.10
38380;DHT22;38377;47.418;18.882;2023-08-07T10:28:59;19.60;87.60
38380;DHT22;38377;47.418;18.882;2023-08-07T10:31:26;19.20;88.30
38380;DHT22;38377;47.418;18.882;2023-08-07T10:33:52;19.10;89.80
38380;DHT22;38377;47.418;18.882;2023-08-07T10:36:19;19.10;87.70
38380;DHT22;38377;47.418;18.882;2023-08-07T10:38:44;19.10;89.20
38380;DHT22;38377;47.418;18.882;2023-08-07T10:41:14;19.30;88.40
38380;DHT22;38377;47.418;18.882;2023-08-07T10:43:44;19.00;86.60
38380;DHT22;38377;47.418;18.882;2023-08-07T10:46:15;18.90;88.60
38380;DHT22;38377;47.418;18.882;2023-08-07T10:48:43;19.20;90.20
38380;DHT22;38377;47.418;18.882;2023-08-07T10:51:15;19.20;89.50
38380;DHT22;38377;47.418;18.882;2023-08-07T10:53:42;19.30;90.00
38380;DHT22;38377;47.418;18.882;2023-08-07T10:56:11;19.10;91.10
38380;DHT22;38377;47.418;18.882;2023-08-07T10:58:41;19.00;90.70
38380;DHT22;38377;47.418;18.882;2023-08-07T11:04:12;19.10;92.50
38380;DHT22;38377;47.418;18.882;2023-08-07T11:06:40;19.10;90.20
38380;DHT22;38377;47.418;18.882;2023-08-07T11:09:06;18.80;90.40
38380;DHT22;38377;47.418;18.882;2023-08-07T11:11:41;18.90;91.30
38380;DHT22;38377;47.418;18.882;2023-08-07T11:14:12;18.90;91.10
38380;DHT22;38377;47.418;18.882;2023-08-07T11:16:38;18.70;91.50
38380;DHT22;38377;47.418;18.882;2023-08-07T11:19:04;18.60;91.10
38380;DHT22;38377;47.418;18.882;2023-08-07T11:21:33;18.70;91.90
38380;DHT22;38377;47.418;18.882;2023-08-07T11:23:59;19.00;91.10
38380;DHT22;38377;47.418;18.882;2023-08-07T11:26:25;19.10;91.70
38380;DHT22;38377;47.418;18.882;2023-08-07T11:28:51;19.30;91.00
38380;DHT22;38377;47.418;18.882;2023-08-07T11:31:21;18.70;90.80
38380;DHT22;38377;47.418;18.882;2023-08-07T11:33:50;18.70;91.60
38380;DHT22;38377;47.418;18.882;2023-08-07T11:36:16;18.60;91.20
38380;DHT22;38377;47.418;18.882;2023-08-07T11:38:43;18.60;91.90
38380;DHT22;38377;47.418;18.882;2023-08-07T11:41:13;18.30;92.10
38380;DHT22;38377;47.418;18.882;2023-08-07T11:43:40;18.10;93.10
38380;DHT22;38377;47.418;18.882;2023-08-07T11:46:08;18.10;93.10
38380;DHT22;38377;47.418;18.882;2023-08-07T11:48:36;18.00;93.40
38380;DHT22;38377;47.418;18.882;2023-08-07T11:51:03;17.90;93.60
38380;DHT22;38377;47.418;18.882;2023-08-07T11:53:31;17.70;94.10
38380;DHT22;38377;47.418;18.882;2023-08-07T11:56:02;17.50;93.80
38380;DHT22;38377;47.418;18.882;2023-08-07T11:58:35;17.20;93.40
38380;DHT22;38377;47.418;18.882;2023-08-07T12:01:20;17.20;93.80
38380;DHT22;38377;47.418;18.882;2023-08-07T12:06:30;17.60;93.10
38380;DHT22;38377;47.418;18.882;2023-08-07T12:08:56;17.70;93.10
38380;DHT22;38377;47.418;18.882;2023-08-07T12:11:23;17.90;93.10
38380;DHT22;38377;47.418;18.882;2023-08-07T12:13:49;18.00;91.80
38380;DHT22;38377;47.418;18.882;2023-08-07T12:19:05;18.10;93.00
38380;DHT22;38377;47.418;18.882;2023-08-07T12:21:31;18.60;92.10
38380;DHT22;38377;47.418;18.882;2023-08-07T12:23:59;18.30;90.90
38380;DHT22;38377;47.418;18.882;2023-08-07T12:26:25;17.90;91.90
38380;DHT22;38377;47.418;18.882;2023-08-07T12:28:52;17.80;91.70
38380;DHT22;38377;47.418;18.882;2023-08-07T12:31:18;18.00;91.90
38380;DHT22;38377;47.418;18.882;2023-08-07T12:33:44;18.20;91.80
38380;DHT22;38377;47.418;18.882;2023-08-07T12:36:09;18.30;92.60
38380;DHT22;38377;47.418;18.882;2023-08-07T12:38:36;18.30;91.90
38380;DHT22;38377;47.418;18.882;2023-08-07T12:41:01;18.60;91.90
38380;DHT22;38377;47.418;18.882;2023-08-07T12:43:28;18.40;91.10
38380;DHT22;38377;47.418;18.882;2023-08-07T12:45:54;18.10;90.90
38380;DHT22;38377;47.418;18.882;2023-08-07T12:48:20;18.00;91.80
38380;DHT22;38377;47.418;18.882;2023-08-07T12:50:45;18.30;93.20
38380;DHT22;38377;47.418;18.882;2023-08-07T12:53:11;18.10;91.70
38380;DHT22;38377;47.418;18.882;2023-08-07T12:55:37;17.70;92.00
38380;DHT22;38377;47.418;18.882;2023-08-07T12:58:02;17.60;92.40
38380;DHT22;38377;47.418;18.882;2023-08-07T13:00:28;17.70;92.50
38380;DHT22;38377;47.418;18.882;2023-08-07T13:02:54;17.80;92.20
38380;DHT22;38377;47.418;18.882;2023-08-07T13:05:21;17.50;92.30
38380;DHT22;38377;47.418;18.882;2023-08-07T13:07:47;17.30;92.60
38380;DHT22;38377;47.418;18.882;2023-08-07T13:10:17;17.20;92.80
38380;DHT22;38377;47.418;18.882;2023-08-07T13:12:44;17.00;93.70
38380;DHT22;38377;47.418;18.882;2023-08-07T13:15:13;16.90;93.80
38380;DHT22;38377;47.418;18.882;2023-08-07T13:17:40;17.00;94.40
38380;DHT22;38377;47.418;18.882;2023-08-07T13:20:06;17.20;94.00
38380;DHT22;38377;47.418;18.882;2023-08-07T13:22:37;17.00;93.40
38380;DHT22;38377;47.418;18.882;2023-08-07T13:25:04;17.00;93.80
38380;DHT22;38377;47.418;18.882;2023-08-07T13:27:30;16.70;94.00
38380;DHT22;38377;47.418;18.882;2023-08-07T13:29:56;16.60;94.50
38380;DHT22;38377;47.418;18.882;2023-08-07T13:32:22;16.40;94.90
38380;DHT22;38377;47.418;18.882;2023-08-07T13:34:47;16.40;95.40
38380;DHT22;38377;47.418;18.882;2023-08-07T13:37:13;16.50;94.90
38380;DHT22;38377;47.418;18.882;2023-08-07T13:39:40;16.40;94.80
38380;DHT22;38377;47.418;18.882;2023-08-07T13:42:06;16.30;95.60
38380;DHT22;38377;47.418;18.882;2023-08-07T13:44:32;16.30;96.00
38380;DHT22;38377;47.418;18.882;2023-08-07T13:46:58;16.20;95.70
38380;DHT22;38377;47.418;18.882;2023-08-07T13:49:24;16.20;95.80
38380;DHT22;38377;47.418;18.882;2023-08-07T13:51:50;16.30;96.30
38380;DHT22;38377;47.418;18.882;2023-08-07T13:54:16;16.20;96.10
38380;DHT22;38377;47.418;18.882;2023-08-07T13:56:41;16.10;96.10
38380;DHT22;38377;47.418;18.882;2023-08-07T13:59:07;16.00;96.10
38380;DHT22;38377;47.418;18.882;2023-08-07T14:01:34;16.00;96.30
38380;DHT22;38377;47.418;18.882;2023-08-07T14:04:01;16.00;96.40
38380;DHT22;38377;47.418;18.882;2023-08-07T14:06:32;16.00;96.60
38380;DHT22;38377;47.418;18.882;2023-08-07T14:08:58;16.00;96.30
38380;DHT22;38377;47.418;18.882;2023-08-07T14:11:24;16.00;96.70
38380;DHT22;38377;47.418;18.882;2023-08-07T14:13:58;15.90;97.20
38380;DHT22;38377;47.418;18.882;2023-08-07T14:16:25;15.90;97.90
38380;DHT22;38377;47.418;18.882;2023-08-07T14:18:51;15.80;97.50
38380;DHT22;38377;47.418;18.882;2023-08-07T14:21:17;15.70;97.50
38380;DHT22;38377;47.418;18.882;2023-08-07T14:23:42;15.60;97.90
38380;DHT22;38377;47.418;18.882;2023-08-07T14:26:11;15.60;98.40
38380;DHT22;38377;47.418;18.882;2023-08-07T14:28:37;15.60;97.90
38380;DHT22;38377;47.418;18.882;2023-08-07T14:31:09;15.50;98.00
38380;DHT22;38377;47.418;18.882;2023-08-07T14:33:35;15.50;98.80
38380;DHT22;38377;47.418;18.882;2023-08-07T14:36:01;15.40;98.70
38380;DHT22;38377;47.418;18.882;2023-08-07T14:38:28;15.30;98.90
38380;DHT22;38377;47.418;18.882;2023-08-07T14:40:54;15.30;99.20
38380;DHT22;38377;47.418;18.882;2023-08-07T14:43:19;15.20;99.00
38380;DHT22;38377;47.418;18.882;2023-08-07T14:45:45;15.00;99.50
38380;DHT22;38377;47.418;18.882;2023-08-07T14:48:13;14.90;99.90
38380;DHT22;38377;47.418;18.882;2023-08-07T14:50:39;15.00;99.90
38380;DHT22;38377;47.418;18.882;2023-08-07T14:53:04;15.00;99.90
38380;DHT22;38377;47.418;18.882;2023-08-07T14:55:30;14.90;99.90
38380;DHT22;38377;47.418;18.882;2023-08-07T14:57:56;14.90;99.90
38380;DHT22;38377;47.418;18.882;2023-08-07T15:00:22;14.90;99.90
38380;DHT22;38377;47.418;18.882;2023-08-07T15:02:48;14.90;99.90
38380;DHT22;38377;47.418;18.882;2023-08-07T15:05:14;14.90;99.90
38380;DHT22;38377;47.418;18.882;2023-08-07T15:07:39;14.90;99.90
38380;DHT22;38377;47.418;18.882;2023-08-07T15:10:07;14.90;99.90
38380;DHT22;38377;47.418;18.882;2023-08-07T15:12:33;14.90;99.90
38380;DHT22;38377;47.418;18.882;2023-08-07T15:14:58;14.90;99.90
38380;DHT22;38377;47.418;18.882;2023-08-07T15:17:25;14.90;99.90
38380;DHT22;38377;47.418;18.882;2023-08-07T15:19:50;14.80;99.90
38380;DHT22;38377;47.418;18.882;2023-08-07T15:22:16;14.90;99.90
38380;DHT22;38377;47.418;18.882;2023-08-07T15:24:42;14.90;99.90